sensor_id;sensor_type;location;lat;lon;timestamp;pressure;altitude;pressure_sealevel;temperature;humidity
7105;BME280;3594;42.152;24.714;2022-07-22T00:02:22;-24468.91;;;23.49;nan
7105;BME280;3594;42.152;24.714;2022-07-22T00:04:48;-24471.25;;;23.57;nan
7105;BME280;3594;42.152;24.714;2022-07-22T00:07:14;-24469.03;;;23.49;nan
7105;BME280;3594;42.152;24.714;2022-07-22T00:09:40;-24465.19;;;23.35;nan
7105;BME280;3594;42.152;24.714;2022-07-22T00:12:06;-24464.19;;;23.31;nan
7105;BME280;3594;42.152;24.714;2022-07-22T00:14:32;-24466.13;;;23.39;nan
7105;BME280;3594;42.152;24.714;2022-07-22T00:16:57;-24465.03;;;23.34;nan
7105;BME280;3594;42.152;24.714;2022-07-22T00:19:23;-24465.88;;;23.38;nan
7105;BME280;3594;42.152;24.714;2022-07-22T00:21:50;-24456.59;;;23.04;nan
7105;BME280;3594;42.152;24.714;2022-07-22T00:24:16;-24460.34;;;23.17;nan
7105;BME280;3594;42.152;24.714;2022-07-22T00:26:42;-24462.69;;;23.26;nan
7105;BME280;3594;42.152;24.714;2022-07-22T00:29:07;-24465.59;;;23.37;nan
7105;BME280;3594;42.152;24.714;2022-07-22T00:31:33;-24463.25;;;23.28;nan
7105;BME280;3594;42.152;24.714;2022-07-22T00:33:59;-24458.41;;;23.10;nan
7105;BME280;3594;42.152;24.714;2022-07-22T00:36:28;-24457.31;;;23.06;nan
7105;BME280;3594;42.152;24.714;2022-07-22T00:38:53;-24449.00;;;22.76;nan
7105;BME280;3594;42.152;24.714;2022-07-22T00:41:19;-24450.94;;;22.83;nan
7105;BME280;3594;42.152;24.714;2022-07-22T00:44:02;-24443.59;;;22.56;nan
7105;BME280;3594;42.152;24.714;2022-07-22T00:46:28;-24444.16;;;22.58;nan
7105;BME280;3594;42.152;24.714;2022-07-22T00:48:55;-24445.41;;;22.63;nan
7105;BME280;3594;42.152;24.714;2022-07-22T00:51:22;-24434.47;;;22.23;nan
7105;BME280;3594;42.152;24.714;2022-07-22T00:53:48;-24437.25;;;22.33;nan
7105;BME280;3594;42.152;24.714;2022-07-22T00:56:15;-24437.78;;;22.35;nan
7105;BME280;3594;42.152;24.714;2022-07-22T00:58:41;-24432.25;;;22.15;nan
7105;BME280;3594;42.152;24.714;2022-07-22T01:01:07;-24435.03;;;22.25;nan
7105;BME280;3594;42.152;24.714;2022-07-22T01:03:32;-24433.09;;;22.18;nan
7105;BME280;3594;42.152;24.714;2022-07-22T01:05:58;-24432.81;;;22.17;nan
7105;BME280;3594;42.152;24.714;2022-07-22T01:08:24;-24431.16;;;22.11;nan
7105;BME280;3594;42.152;24.714;2022-07-22T01:10:51;-24424.78;;;21.87;nan
7105;BME280;3594;42.152;24.714;2022-07-22T01:13:17;-24432.13;;;22.14;nan
7105;BME280;3594;42.152;24.714;2022-07-22T01:15:42;-24426.31;;;21.93;nan
7105;BME280;3594;42.152;24.714;2022-07-22T01:18:11;-24433.66;;;22.20;nan
7105;BME280;3594;42.152;24.714;2022-07-22T01:20:37;-24432.13;;;22.14;nan
7105;BME280;3594;42.152;24.714;2022-07-22T01:23:03;-24426.88;;;21.95;nan
7105;BME280;3594;42.152;24.714;2022-07-22T01:25:29;-24430.75;;;22.09;nan
7105;BME280;3594;42.152;24.714;2022-07-22T01:27:55;-24431.16;;;22.11;nan
7105;BME280;3594;42.152;24.714;2022-07-22T01:30:21;-24422.56;;;21.79;nan
7105;BME280;3594;42.152;24.714;2022-07-22T01:32:46;-24427.84;;;21.98;nan
7105;BME280;3594;42.152;24.714;2022-07-22T01:35:12;-24430.47;;;22.08;nan
7105;BME280;3594;42.152;24.714;2022-07-22T01:37:37;-24422.97;;;21.81;nan
7105;BME280;3594;42.152;24.714;2022-07-22T01:40:03;-24429.78;;;22.06;nan
7105;BME280;3594;42.152;24.714;2022-07-22T01:42:29;-24423.69;;;21.83;nan
7105;BME280;3594;42.152;24.714;2022-07-22T01:44:55;-24425.34;;;21.89;nan
7105;BME280;3594;42.152;24.714;2022-07-22T01:47:20;-24423.69;;;21.83;nan
7105;BME280;3594;42.152;24.714;2022-07-22T01:49:46;-24415.91;;;21.55;nan
7105;BME280;3594;42.152;24.714;2022-07-22T01:52:11;-24421.75;;;21.76;nan
7105;BME280;3594;42.152;24.714;2022-07-22T01:54:37;-24419.66;;;21.69;nan
7105;BME280;3594;42.152;24.714;2022-07-22T01:57:02;-24419.66;;;21.69;nan
7105;BME280;3594;42.152;24.714;2022-07-22T01:59:28;-24420.91;;;21.73;nan
7105;BME280;3594;42.152;24.714;2022-07-22T02:01:53;-24411.06;;;21.37;nan
7105;BME280;3594;42.152;24.714;2022-07-22T02:04:19;-24414.53;;;21.50;nan
7105;BME280;3594;42.152;24.714;2022-07-22T02:06:44;-24412.03;;;21.41;nan
7105;BME280;3594;42.152;24.714;2022-07-22T02:09:10;-24404.13;;;21.12;nan
7105;BME280;3594;42.152;24.714;2022-07-22T02:11:36;-24409.81;;;21.33;nan
7105;BME280;3594;42.152;24.714;2022-07-22T02:14:01;-24407.75;;;21.25;nan
7105;BME280;3594;42.152;24.714;2022-07-22T02:16:28;-24402.88;;;21.07;nan
7105;BME280;3594;42.152;24.714;2022-07-22T02:18:54;-24402.88;;;21.07;nan
7105;BME280;3594;42.152;24.714;2022-07-22T02:21:19;-24399.97;;;20.97;nan
7105;BME280;3594;42.152;24.714;2022-07-22T02:23:45;-24394.84;;;20.78;nan
7105;BME280;3594;42.152;24.714;2022-07-22T02:26:10;-24391.50;;;20.66;nan
7105;BME280;3594;42.152;24.714;2022-07-22T02:28:36;-24398.59;;;20.92;nan
7105;BME280;3594;42.152;24.714;2022-07-22T02:31:02;-24398.59;;;20.92;nan
7105;BME280;3594;42.152;24.714;2022-07-22T02:33:27;-24396.38;;;20.84;nan
7105;BME280;3594;42.152;24.714;2022-07-22T02:35:55;-24396.38;;;20.84;nan
7105;BME280;3594;42.152;24.714;2022-07-22T02:38:20;-24393.72;;;20.74;nan
7105;BME280;3594;42.152;24.714;2022-07-22T02:40:46;-24391.78;;;20.67;nan
7105;BME280;3594;42.152;24.714;2022-07-22T02:43:11;-24384.16;;;20.39;nan
7105;BME280;3594;42.152;24.714;2022-07-22T02:45:37;-24394.56;;;20.77;nan
7105;BME280;3594;42.152;24.714;2022-07-22T02:48:02;-24388.59;;;20.55;nan
7105;BME280;3594;42.152;24.714;2022-07-22T02:50:28;-24388.88;;;20.56;nan
7105;BME280;3594;42.152;24.714;2022-07-22T02:52:53;-24395.13;;;20.79;nan
7105;BME280;3594;42.152;24.714;2022-07-22T02:55:19;-24396.66;;;20.85;nan
7105;BME280;3594;42.152;24.714;2022-07-22T02:57:45;-24390.53;;;20.62;nan
7105;BME280;3594;42.152;24.714;2022-07-22T03:00:11;-24386.53;;;20.48;nan
7105;BME280;3594;42.152;24.714;2022-07-22T03:02:38;-24388.59;;;20.55;nan
7105;BME280;3594;42.152;24.714;2022-07-22T03:05:04;-24393.88;;;20.75;nan
7105;BME280;3594;42.152;24.714;2022-07-22T03:07:30;-24390.69;;;20.63;nan
7105;BME280;3594;42.152;24.714;2022-07-22T03:09:56;-24394.84;;;20.78;nan
7105;BME280;3594;42.152;24.714;2022-07-22T03:12:22;-24386.78;;;20.49;nan
7105;BME280;3594;42.152;24.714;2022-07-22T03:14:47;-24389.44;;;20.58;nan
7105;BME280;3594;42.152;24.714;2022-07-22T03:17:13;-24394.16;;;20.76;nan
7105;BME280;3594;42.152;24.714;2022-07-22T03:19:38;-24401.63;;;21.03;nan
7105;BME280;3594;42.152;24.714;2022-07-22T03:22:04;-24401.22;;;21.01;nan
7105;BME280;3594;42.152;24.714;2022-07-22T03:24:29;-24415.78;;;21.54;nan
7105;BME280;3594;42.152;24.714;2022-07-22T03:26:55;-24425.91;;;21.91;nan
7105;BME280;3594;42.152;24.714;2022-07-22T03:29:20;-24427.56;;;21.97;nan
7105;BME280;3594;42.152;24.714;2022-07-22T03:31:46;-24443.34;;;22.55;nan
7105;BME280;3594;42.152;24.714;2022-07-22T03:34:11;-24457.31;;;23.06;nan
7105;BME280;3594;42.152;24.714;2022-07-22T03:36:37;-24468.78;;;23.48;nan
7105;BME280;3594;42.152;24.714;2022-07-22T03:39:02;-24482.00;;;23.97;nan
7105;BME280;3594;42.152;24.714;2022-07-22T03:41:28;-24497.19;;;24.52;nan
7105;BME280;3594;42.152;24.714;2022-07-22T03:43:53;-24509.84;;;24.99;nan
7105;BME280;3594;42.152;24.714;2022-07-22T03:46:19;-24529.41;;;25.71;nan
7105;BME280;3594;42.152;24.714;2022-07-22T03:48:44;-24548.38;;;26.41;nan
7105;BME280;3594;42.152;24.714;2022-07-22T03:51:10;-24561.56;;;26.89;nan
7105;BME280;3594;42.152;24.714;2022-07-22T03:53:35;-24565.38;;;27.03;nan
7105;BME280;3594;42.152;24.714;2022-07-22T03:56:01;-24464.91;;;23.34;nan
7105;BME280;3594;42.152;24.714;2022-07-22T03:58:27;-24464.91;;;23.34;nan
7105;BME280;3594;42.152;24.714;2022-07-22T04:00:53;-24597.19;;;28.21;nan
7105;BME280;3594;42.152;24.714;2022-07-22T04:03:19;-24556.75;;;26.71;nan
7105;BME280;3594;42.152;24.714;2022-07-22T04:05:45;-24556.75;;;26.71;nan
7105;BME280;3594;42.152;24.714;2022-07-22T04:08:11;-24645.13;;;29.98;nan
7105;BME280;3594;42.152;24.714;2022-07-22T04:10:37;-24653.44;;;30.29;nan
7105;BME280;3594;42.152;24.714;2022-07-22T04:13:02;-24661.22;;;30.58;nan
7105;BME280;3594;42.152;24.714;2022-07-22T04:15:28;-24678.09;;;31.21;nan
7105;BME280;3594;42.152;24.714;2022-07-22T04:17:53;-24681.22;;;31.32;nan
7105;BME280;3594;42.152;24.714;2022-07-22T04:20:19;-24683.41;;;31.40;nan
7105;BME280;3594;42.152;24.714;2022-07-22T04:22:44;-24692.50;;;31.74;nan
7105;BME280;3594;42.152;24.714;2022-07-22T04:30:01;-24697.53;;;31.93;nan
7105;BME280;3594;42.152;24.714;2022-07-22T04:32:26;-24703.25;;;32.14;nan
7105;BME280;3594;42.152;24.714;2022-07-22T04:39:43;-24720.47;;;32.78;nan
7105;BME280;3594;42.152;24.714;2022-07-22T04:42:09;-24717.63;;;32.68;nan
7105;BME280;3594;42.152;24.714;2022-07-22T04:44:34;-24716.28;;;32.63;nan
7105;BME280;3594;42.152;24.714;2022-07-22T04:47:00;-24711.38;;;32.44;nan
7105;BME280;3594;42.152;24.714;2022-07-22T04:49:25;-24584.31;;;27.73;nan
7105;BME280;3594;42.152;24.714;2022-07-22T04:51:51;-24710.84;;;32.42;nan
7105;BME280;3594;42.152;24.714;2022-07-22T04:54:17;-24721.56;;;32.82;nan
7105;BME280;3594;42.152;24.714;2022-07-22T04:56:42;-24703.38;;;32.15;nan
7105;BME280;3594;42.152;24.714;2022-07-22T04:59:08;-24703.38;;;32.15;nan
7105;BME280;3594;42.152;24.714;2022-07-22T05:01:33;-24550.16;;;26.47;nan
7105;BME280;3594;42.152;24.714;2022-07-22T05:03:59;-24688.84;;;31.61;nan
7105;BME280;3594;42.152;24.714;2022-07-22T05:06:24;-24679.72;;;31.27;nan
7105;BME280;3594;42.152;24.714;2022-07-22T05:08:50;-24663.66;;;30.67;nan
7105;BME280;3594;42.152;24.714;2022-07-22T05:11:15;-24658.09;;;30.46;nan
7105;BME280;3594;42.152;24.714;2022-07-22T05:13:41;-24656.72;;;30.41;nan
7105;BME280;3594;42.152;24.714;2022-07-22T05:16:07;-24656.03;;;30.39;nan
7105;BME280;3594;42.152;24.714;2022-07-22T05:18:33;-24667.22;;;30.80;nan
7105;BME280;3594;42.152;24.714;2022-07-22T05:21:00;-24665.31;;;30.73;nan
7105;BME280;3594;42.152;24.714;2022-07-22T05:23:25;-24664.75;;;30.71;nan
7105;BME280;3594;42.152;24.714;2022-07-22T05:25:50;-24671.97;;;30.98;nan
7105;BME280;3594;42.152;24.714;2022-07-22T05:28:16;-24669.25;;;30.88;nan
7105;BME280;3594;42.152;24.714;2022-07-22T05:30:41;-24671.84;;;30.97;nan
7105;BME280;3594;42.152;24.714;2022-07-22T05:33:08;-24673.88;;;31.05;nan
7105;BME280;3594;42.152;24.714;2022-07-22T05:35:33;-24675.38;;;31.10;nan
7105;BME280;3594;42.152;24.714;2022-07-22T05:37:59;-24672.53;;;31.00;nan
7105;BME280;3594;42.152;24.714;2022-07-22T05:40:24;-24662.44;;;30.62;nan
7105;BME280;3594;42.152;24.714;2022-07-22T05:42:49;-24651.28;;;30.21;nan
7105;BME280;3594;42.152;24.714;2022-07-22T05:45:15;-24639.69;;;29.78;nan
7105;BME280;3594;42.152;24.714;2022-07-22T05:47:40;-24639.00;;;29.75;nan
7105;BME280;3594;42.152;24.714;2022-07-22T05:50:06;-24623.69;;;29.19;nan
7105;BME280;3594;42.152;24.714;2022-07-22T05:52:34;-24614.13;;;28.83;nan
7105;BME280;3594;42.152;24.714;2022-07-22T05:55:00;-24608.66;;;28.63;nan
7105;BME280;3594;42.152;24.714;2022-07-22T05:57:25;-24605.94;;;28.53;nan
7105;BME280;3594;42.152;24.714;2022-07-22T05:59:51;-24596.63;;;28.19;nan
7105;BME280;3594;42.152;24.714;2022-07-22T06:02:16;-24598.97;;;28.27;nan
7105;BME280;3594;42.152;24.714;2022-07-22T06:04:42;-24597.88;;;28.23;nan
7105;BME280;3594;42.152;24.714;2022-07-22T06:07:07;-24591.56;;;28.00;nan
7105;BME280;3594;42.152;24.714;2022-07-22T06:09:33;-24599.50;;;28.29;nan
7105;BME280;3594;42.152;24.714;2022-07-22T06:11:58;-24592.94;;;28.05;nan
7105;BME280;3594;42.152;24.714;2022-07-22T06:14:24;-24598.28;;;28.25;nan
7105;BME280;3594;42.152;24.714;2022-07-22T06:16:49;-24590.75;;;27.97;nan
7105;BME280;3594;42.152;24.714;2022-07-22T06:19:15;-24582.66;;;27.67;nan
7105;BME280;3594;42.152;24.714;2022-07-22T06:21:40;-24592.25;;;28.02;nan
7105;BME280;3594;42.152;24.714;2022-07-22T06:24:06;-24592.25;;;28.02;nan
7105;BME280;3594;42.152;24.714;2022-07-22T06:26:31;-24597.03;;;28.20;nan
7105;BME280;3594;42.152;24.714;2022-07-22T06:28:57;-24589.78;;;27.93;nan
7105;BME280;3594;42.152;24.714;2022-07-22T06:31:22;-24586.78;;;27.82;nan
7105;BME280;3594;42.152;24.714;2022-07-22T06:33:48;-24586.78;;;27.82;nan
7105;BME280;3594;42.152;24.714;2022-07-22T06:36:13;-24579.78;;;27.56;nan
7105;BME280;3594;42.152;24.714;2022-07-22T06:38:40;-24585.13;;;27.76;nan
7105;BME280;3594;42.152;24.714;2022-07-22T06:41:05;-24589.66;;;27.93;nan
7105;BME280;3594;42.152;24.714;2022-07-22T06:43:32;-24591.97;;;28.01;nan
7105;BME280;3594;42.152;24.714;2022-07-22T06:45:57;-24591.97;;;28.01;nan
7105;BME280;3594;42.152;24.714;2022-07-22T06:48:23;-24599.91;;;28.31;nan
7105;BME280;3594;42.152;24.714;2022-07-22T06:50:48;-24601.16;;;28.35;nan
7105;BME280;3594;42.152;24.714;2022-07-22T06:53:14;-24607.72;;;28.60;nan
7105;BME280;3594;42.152;24.714;2022-07-22T06:55:39;-24599.22;;;28.28;nan
7105;BME280;3594;42.152;24.714;2022-07-22T06:58:05;-24605.13;;;28.50;nan
7105;BME280;3594;42.152;24.714;2022-07-22T07:00:30;-24613.31;;;28.80;nan
7105;BME280;3594;42.152;24.714;2022-07-22T07:02:59;-24618.50;;;28.99;nan
7105;BME280;3594;42.152;24.714;2022-07-22T07:05:25;-24616.19;;;28.91;nan
7105;BME280;3594;42.152;24.714;2022-07-22T07:07:52;-24616.19;;;28.91;nan
7105;BME280;3594;42.152;24.714;2022-07-22T07:10:18;-24617.81;;;28.97;nan
7105;BME280;3594;42.152;24.714;2022-07-22T07:12:44;-24626.72;;;29.30;nan
7105;BME280;3594;42.152;24.714;2022-07-22T07:15:10;-24623.28;;;29.17;nan
7105;BME280;3594;42.152;24.714;2022-07-22T07:17:36;-24623.28;;;29.17;nan
7105;BME280;3594;42.152;24.714;2022-07-22T07:20:02;-24625.19;;;29.24;nan
7105;BME280;3594;42.152;24.714;2022-07-22T07:22:28;-24620.00;;;29.05;nan
7105;BME280;3594;42.152;24.714;2022-07-22T07:24:53;-24629.16;;;29.39;nan
7105;BME280;3594;42.152;24.714;2022-07-22T07:27:19;-24623.16;;;29.17;nan
7105;BME280;3594;42.152;24.714;2022-07-22T07:29:44;-24623.16;;;29.17;nan
7105;BME280;3594;42.152;24.714;2022-07-22T07:32:11;-24630.81;;;29.45;nan
7105;BME280;3594;42.152;24.714;2022-07-22T07:34:36;-24619.06;;;29.02;nan
7105;BME280;3594;42.152;24.714;2022-07-22T07:37:02;-24618.38;;;28.99;nan
7105;BME280;3594;42.152;24.714;2022-07-22T07:39:27;-24621.78;;;29.12;nan
7105;BME280;3594;42.152;24.714;2022-07-22T07:41:53;-24622.59;;;29.15;nan
7105;BME280;3594;42.152;24.714;2022-07-22T07:44:18;-24614.41;;;28.84;nan
7105;BME280;3594;42.152;24.714;2022-07-22T07:46:44;-24620.69;;;29.08;nan
7105;BME280;3594;42.152;24.714;2022-07-22T07:49:10;-24615.22;;;28.87;nan
7105;BME280;3594;42.152;24.714;2022-07-22T07:51:35;-24620.56;;;29.07;nan
7105;BME280;3594;42.152;24.714;2022-07-22T07:54:01;-24626.03;;;29.27;nan
7105;BME280;3594;42.152;24.714;2022-07-22T07:56:27;-24639.28;;;29.76;nan
7105;BME280;3594;42.152;24.714;2022-07-22T07:58:53;-24653.59;;;30.29;nan
7105;BME280;3594;42.152;24.714;2022-07-22T08:01:18;-24653.59;;;30.29;nan
7105;BME280;3594;42.152;24.714;2022-07-22T08:03:44;-24649.50;;;30.14;nan
7105;BME280;3594;42.152;24.714;2022-07-22T08:06:10;-24647.03;;;30.05;nan
7105;BME280;3594;42.152;24.714;2022-07-22T08:08:35;-24657.53;;;30.44;nan
7105;BME280;3594;42.152;24.714;2022-07-22T08:11:00;-24664.50;;;30.70;nan
7105;BME280;3594;42.152;24.714;2022-07-22T08:13:26;-24673.06;;;31.02;nan
7105;BME280;3594;42.152;24.714;2022-07-22T08:15:52;-24676.75;;;31.16;nan
7105;BME280;3594;42.152;24.714;2022-07-22T08:18:17;-24685.97;;;31.50;nan
7105;BME280;3594;42.152;24.714;2022-07-22T08:20:43;-24685.97;;;31.50;nan
7105;BME280;3594;42.152;24.714;2022-07-22T08:23:08;-24679.47;;;31.26;nan
7105;BME280;3594;42.152;24.714;2022-07-22T08:25:34;-24679.47;;;31.26;nan
7105;BME280;3594;42.152;24.714;2022-07-22T08:27:59;-24533.53;;;25.86;nan
7105;BME280;3594;42.152;24.714;2022-07-22T08:30:25;-24682.88;;;31.38;nan
7105;BME280;3594;42.152;24.714;2022-07-22T08:32:54;-24682.88;;;31.38;nan
7105;BME280;3594;42.152;24.714;2022-07-22T08:35:20;-24690.22;;;31.66;nan
7105;BME280;3594;42.152;24.714;2022-07-22T08:37:46;-24699.56;;;32.00;nan
7105;BME280;3594;42.152;24.714;2022-07-22T08:40:14;-24704.88;;;32.20;nan
7105;BME280;3594;42.152;24.714;2022-07-22T08:42:42;-24700.78;;;32.05;nan
7105;BME280;3594;42.152;24.714;2022-07-22T08:45:08;-24698.09;;;31.95;nan
7105;BME280;3594;42.152;24.714;2022-07-22T08:47:34;-24698.09;;;31.95;nan
7105;BME280;3594;42.152;24.714;2022-07-22T08:50:00;-24691.69;;;31.71;nan
7105;BME280;3594;42.152;24.714;2022-07-22T08:52:26;-24683.28;;;31.40;nan
7105;BME280;3594;42.152;24.714;2022-07-22T08:54:52;-24688.84;;;31.61;nan
7105;BME280;3594;42.152;24.714;2022-07-22T08:57:18;-24687.50;;;31.55;nan
7105;BME280;3594;42.152;24.714;2022-07-22T08:59:52;-24687.06;;;31.54;nan
7105;BME280;3594;42.152;24.714;2022-07-22T09:02:19;-24696.19;;;31.88;nan
7105;BME280;3594;42.152;24.714;2022-07-22T09:05:02;-24698.50;;;31.96;nan
7105;BME280;3594;42.152;24.714;2022-07-22T09:07:32;-24696.72;;;31.90;nan
7105;BME280;3594;42.152;24.714;2022-07-22T09:10:00;-24698.22;;;31.95;nan
7105;BME280;3594;42.152;24.714;2022-07-22T09:12:26;-24705.56;;;32.23;nan
7105;BME280;3594;42.152;24.714;2022-07-22T09:14:58;-24705.56;;;32.23;nan
7105;BME280;3594;42.152;24.714;2022-07-22T09:17:26;-24703.78;;;32.16;nan
7105;BME280;3594;42.152;24.714;2022-07-22T09:19:54;-24700.78;;;32.05;nan
7105;BME280;3594;42.152;24.714;2022-07-22T09:22:41;-24693.47;;;31.78;nan
7105;BME280;3594;42.152;24.714;2022-07-22T09:28:08;-24706.50;;;32.26;nan
7105;BME280;3594;42.152;24.714;2022-07-22T09:33:05;-24710.72;;;32.42;nan
7105;BME280;3594;42.152;24.714;2022-07-22T09:35:31;-24715.06;;;32.58;nan
7105;BME280;3594;42.152;24.714;2022-07-22T09:38:17;-24430.19;;;22.07;nan
7105;BME280;3594;42.152;24.714;2022-07-22T09:40:45;-24700.25;;;32.03;nan
7105;BME280;3594;42.152;24.714;2022-07-22T09:43:19;-24700.25;;;32.03;nan
7105;BME280;3594;42.152;24.714;2022-07-22T09:45:56;-24704.88;;;32.20;nan
7105;BME280;3594;42.152;24.714;2022-07-22T09:48:25;-24706.22;;;32.25;nan
7105;BME280;3594;42.152;24.714;2022-07-22T09:50:52;-24714.09;;;32.55;nan
7105;BME280;3594;42.152;24.714;2022-07-22T09:53:21;-24705.16;;;32.21;nan
7105;BME280;3594;42.152;24.714;2022-07-22T09:55:47;-24726.19;;;33.00;nan
7105;BME280;3594;42.152;24.714;2022-07-22T09:58:13;-24727.41;;;33.04;nan
7105;BME280;3594;42.152;24.714;2022-07-22T10:00:40;-24714.50;;;32.56;nan
7105;BME280;3594;42.152;24.714;2022-07-22T10:03:08;-24697.00;;;31.91;nan
7105;BME280;3594;42.152;24.714;2022-07-22T10:05:37;-24716.41;;;32.63;nan
7105;BME280;3594;42.152;24.714;2022-07-22T10:08:04;-24711.94;;;32.47;nan
7105;BME280;3594;42.152;24.714;2022-07-22T10:10:31;-24718.44;;;32.71;nan
7105;BME280;3594;42.152;24.714;2022-07-22T10:12:59;-24716.28;;;32.63;nan
7105;BME280;3594;42.152;24.714;2022-07-22T10:15:26;-24716.28;;;32.63;nan
7105;BME280;3594;42.152;24.714;2022-07-22T10:17:54;-24715.31;;;32.59;nan
7105;BME280;3594;42.152;24.714;2022-07-22T10:20:22;-24719.94;;;32.76;nan
7105;BME280;3594;42.152;24.714;2022-07-22T10:22:51;-24721.97;;;32.84;nan
7105;BME280;3594;42.152;24.714;2022-07-22T10:25:19;-24713.69;;;32.53;nan
7105;BME280;3594;42.152;24.714;2022-07-22T10:27:52;-24716.56;;;32.64;nan
7105;BME280;3594;42.152;24.714;2022-07-22T10:30:29;-24725.91;;;32.99;nan
7105;BME280;3594;42.152;24.714;2022-07-22T10:35:50;-24723.72;;;32.91;nan
7105;BME280;3594;42.152;24.714;2022-07-22T10:38:17;-24723.72;;;32.91;nan
7105;BME280;3594;42.152;24.714;2022-07-22T10:40:56;-24715.88;;;32.61;nan
7105;BME280;3594;42.152;24.714;2022-07-22T10:43:27;-24726.44;;;33.01;nan
7105;BME280;3594;42.152;24.714;2022-07-22T10:45:58;-24733.09;;;33.25;nan
7105;BME280;3594;42.152;24.714;2022-07-22T10:51:14;-24730.25;;;33.15;nan
7105;BME280;3594;42.152;24.714;2022-07-22T10:53:56;-24738.91;;;33.47;nan
7105;BME280;3594;42.152;24.714;2022-07-22T10:56:29;-24740.13;;;33.52;nan
7105;BME280;3594;42.152;24.714;2022-07-22T10:59:12;-24742.16;;;33.59;nan
7105;BME280;3594;42.152;24.714;2022-07-22T11:01:46;-24753.94;;;33.62;nan
7105;BME280;3594;42.152;24.714;2022-07-22T11:04:20;-24753.94;;;34.03;nan
7105;BME280;3594;42.152;24.714;2022-07-22T11:06:51;-24760.03;;;34.26;nan
7105;BME280;3594;42.152;24.714;2022-07-22T11:14:23;-24751.50;;;33.94;nan
7105;BME280;3594;42.152;24.714;2022-07-22T11:17:11;-24756.22;;;34.12;nan
7105;BME280;3594;42.152;24.714;2022-07-22T11:19:39;-24754.34;;;34.05;nan
7105;BME280;3594;42.152;24.714;2022-07-22T11:22:10;-24760.03;;;34.26;nan
7105;BME280;3594;42.152;24.714;2022-07-22T11:24:37;-24766.63;;;34.51;nan
7105;BME280;3594;42.152;24.714;2022-07-22T11:27:06;-24767.03;;;34.52;nan
7105;BME280;3594;42.152;24.714;2022-07-22T11:29:38;-24751.63;;;33.95;nan
7105;BME280;3594;42.152;24.714;2022-07-22T11:32:07;-24751.63;;;33.95;nan
7105;BME280;3594;42.152;24.714;2022-07-22T11:34:36;-24747.44;;;33.79;nan
7105;BME280;3594;42.152;24.714;2022-07-22T11:37:03;-24747.16;;;33.78;nan
7105;BME280;3594;42.152;24.714;2022-07-22T11:39:29;-24757.72;;;34.17;nan
7105;BME280;3594;42.152;24.714;2022-07-22T11:41:57;-24755.56;;;34.09;nan
7105;BME280;3594;42.152;24.714;2022-07-22T11:44:29;-24755.00;;;34.07;nan
7105;BME280;3594;42.152;24.714;2022-07-22T11:46:55;-24713.56;;;32.53;nan
7105;BME280;3594;42.152;24.714;2022-07-22T11:49:27;-24760.69;;;34.29;nan
7105;BME280;3594;42.152;24.714;2022-07-22T11:51:54;-24765.69;;;34.47;nan
7105;BME280;3594;42.152;24.714;2022-07-22T11:54:19;-24765.69;;;34.47;nan
7105;BME280;3594;42.152;24.714;2022-07-22T11:56:45;-24763.53;;;34.39;nan
7105;BME280;3594;42.152;24.714;2022-07-22T11:59:15;-24694.69;;;31.82;nan
7105;BME280;3594;42.152;24.714;2022-07-22T12:01:41;-24757.72;;;34.17;nan
7105;BME280;3594;42.152;24.714;2022-07-22T12:04:13;-24692.66;;;31.75;nan
7105;BME280;3594;42.152;24.714;2022-07-22T12:06:41;-24756.22;;;34.12;nan
7105;BME280;3594;42.152;24.714;2022-07-22T12:11:39;-24762.72;;;34.36;nan
7105;BME280;3594;42.152;24.714;2022-07-22T12:14:10;-24768.94;;;34.59;nan
7105;BME280;3594;42.152;24.714;2022-07-22T12:16:38;-24770.69;;;34.66;nan
7105;BME280;3594;42.152;24.714;2022-07-22T12:19:12;-24770.69;;;34.66;nan
7105;BME280;3594;42.152;24.714;2022-07-22T12:21:59;-24769.63;;;34.62;nan
7105;BME280;3594;42.152;24.714;2022-07-22T12:24:28;-24764.22;;;34.42;nan
7105;BME280;3594;42.152;24.714;2022-07-22T12:26:56;-24767.03;;;34.52;nan
7105;BME280;3594;42.152;24.714;2022-07-22T12:29:30;-24768.00;;;34.56;nan
7105;BME280;3594;42.152;24.714;2022-07-22T12:34:40;-24789.72;;;35.37;nan
7105;BME280;3594;42.152;24.714;2022-07-22T12:39:38;-24791.06;;;35.42;nan
7105;BME280;3594;42.152;24.714;2022-07-22T12:42:16;-24782.16;;;35.09;nan
7105;BME280;3594;42.152;24.714;2022-07-22T12:44:50;-24786.34;;;35.25;nan
7105;BME280;3594;42.152;24.714;2022-07-22T12:47:16;-24792.28;;;35.47;nan
7105;BME280;3594;42.152;24.714;2022-07-22T12:49:42;-24796.59;;;35.63;nan
7105;BME280;3594;42.152;24.714;2022-07-22T12:52:16;-24796.06;;;35.61;nan
7105;BME280;3594;42.152;24.714;2022-07-22T12:54:41;-24792.56;;;35.48;nan
7105;BME280;3594;42.152;24.714;2022-07-22T12:57:08;-24789.06;;;35.35;nan
7105;BME280;3594;42.152;24.714;2022-07-22T12:59:35;-24793.91;;;35.53;nan
7105;BME280;3594;42.152;24.714;2022-07-22T13:02:02;-24791.06;;;35.42;nan
7105;BME280;3594;42.152;24.714;2022-07-22T13:04:27;-24799.03;;;35.72;nan
7105;BME280;3594;42.152;24.714;2022-07-22T13:06:53;-24800.66;;;35.78;nan
7105;BME280;3594;42.152;24.714;2022-07-22T13:09:19;-24782.84;;;35.12;nan
7105;BME280;3594;42.152;24.714;2022-07-22T13:11:45;-24782.84;;;35.12;nan
7105;BME280;3594;42.152;24.714;2022-07-22T13:14:11;-24778.53;;;34.95;nan
7105;BME280;3594;42.152;24.714;2022-07-22T13:21:28;-24780.97;;;35.05;nan
7105;BME280;3594;42.152;24.714;2022-07-22T13:23:54;-24777.59;;;34.92;nan
7105;BME280;3594;42.152;24.714;2022-07-22T13:26:19;-24775.81;;;34.85;nan
7105;BME280;3594;42.152;24.714;2022-07-22T13:28:46;-24782.84;;;35.12;nan
7105;BME280;3594;42.152;24.714;2022-07-22T13:31:12;-24780.97;;;35.05;nan
7105;BME280;3594;42.152;24.714;2022-07-22T13:33:37;-24790.41;;;35.40;nan
7105;BME280;3594;42.152;24.714;2022-07-22T13:36:03;-24797.81;;;35.68;nan
7105;BME280;3594;42.152;24.714;2022-07-22T13:43:21;-24797.56;;;35.67;nan
7105;BME280;3594;42.152;24.714;2022-07-22T13:45:48;-24794.97;;;35.57;nan
7105;BME280;3594;42.152;24.714;2022-07-22T13:53:05;-24787.31;;;35.28;nan
7105;BME280;3594;42.152;24.714;2022-07-22T13:55:30;-24784.47;;;35.18;nan
7105;BME280;3594;42.152;24.714;2022-07-22T13:57:56;-24794.59;;;35.56;nan
7105;BME280;3594;42.152;24.714;2022-07-22T14:00:23;-24631.91;;;29.49;nan
7105;BME280;3594;42.152;24.714;2022-07-22T14:02:49;-24800.78;;;35.79;nan
7105;BME280;3594;42.152;24.714;2022-07-22T14:05:14;-24806.84;;;36.02;nan
7105;BME280;3594;42.152;24.714;2022-07-22T14:07:40;-24799.56;;;35.74;nan
7105;BME280;3594;42.152;24.714;2022-07-22T14:10:06;-24805.78;;;35.98;nan